Time;durP1;ratioP1;P1;durP2;ratioP2;P2;SDS_P1;SDS_P2;PMS_P1;PMS_P2;Temp;Humidity;BMP_temperature;BMP_pressure;BME280_temperature;BME280_humidity;BME280_pressure;Samples;Min_cycle;Max_cycle;Signal;HPM_P1;HPM_P2
2023/09/16 00:00:51;;;;;;;6.60;3.00;;;;;;;10.45;85.02;101100.09;105434;1254;82774;-59
2023/09/16 00:03:36;;;;;;;3.80;2.50;;;;;;;10.43;85.05;101097.34;105402;1257;73857;-59
2023/09/16 00:06:04;;;;;;;7.10;2.50;;;;;;;10.40;85.01;101095.85;105468;1257;69185;-59
2023/09/16 00:08:33;;;;;;;5.70;2.50;;;;;;;10.38;85.26;101098.33;105479;1254;69098;-59
2023/09/16 00:11:02;;;;;;;5.50;2.60;;;;;;;10.39;85.32;101099.38;105504;1257;74814;-59
2023/09/16 00:13:30;;;;;;;5.80;2.50;;;;;;;10.37;85.24;101098.71;105469;1257;83217;-59
2023/09/16 00:15:58;;;;;;;5.60;3.20;;;;;;;10.35;85.37;101098.60;105482;1254;73602;-58
2023/09/16 00:18:27;;;;;;;5.50;2.80;;;;;;;10.33;85.45;101097.77;105509;1256;69164;-59
2023/09/16 00:20:55;;;;;;;5.50;3.20;;;;;;;10.31;85.41;101098.70;105495;1256;69583;-59
2023/09/16 00:23:24;;;;;;;5.50;2.80;;;;;;;10.28;85.53;101099.47;105448;1254;74844;-59
2023/09/16 00:25:52;;;;;;;6.20;3.00;;;;;;;10.26;85.60;101099.83;105509;1257;83381;-59
2023/09/16 00:28:21;;;;;;;4.90;3.00;;;;;;;10.25;85.66;101102.47;105453;1254;73029;-59
2023/09/16 00:30:49;;;;;;;4.80;2.60;;;;;;;10.23;85.80;101102.15;105466;1257;69123;-59
2023/09/16 00:33:17;;;;;;;6.50;2.60;;;;;;;10.23;85.90;101103.91;105523;1257;69472;-59
2023/09/16 00:35:46;;;;;;;5.20;2.80;;;;;;;10.22;85.94;101104.28;105443;1257;74996;-59
2023/09/16 00:38:15;;;;;;;6.00;2.60;;;;;;;10.22;86.14;101104.29;105249;1259;83178;-59
2023/09/16 00:40:44;;;;;;;4.40;2.10;;;;;;;10.22;86.18;101104.45;105499;1254;72415;-59
2023/09/16 00:43:14;;;;;;;2.50;1.80;;;;;;;10.23;86.44;101115.62;105371;1258;69141;-59
2023/09/16 00:45:42;;;;;;;4.10;2.10;;;;;;;10.24;86.62;101116.64;105466;1254;69107;-58
2023/09/16 00:48:12;;;;;;;5.10;2.30;;;;;;;10.24;86.54;101116.11;105471;1254;74606;-58
2023/09/16 00:50:42;;;;;;;6.30;2.40;;;;;;;10.23;86.63;101118.23;105497;1254;83713;-58
2023/09/16 00:53:12;;;;;;;4.10;2.30;;;;;;;10.24;86.77;101117.34;105495;1257;73706;-58
2023/09/16 00:55:41;;;;;;;;;;;;;;;10.23;86.74;101116.48;105358;1258;69203;-58
2023/09/16 00:58:11;;;;;;;3.80;2.30;;;;;;;10.21;86.76;101117.59;105441;1257;69623;-58
2023/09/16 01:00:40;;;;;;;3.40;2.00;;;;;;;10.20;86.81;101117.45;105486;1257;73018;-58
2023/09/16 01:03:09;;;;;;;6.10;2.30;;;;;;;10.19;86.98;101108.72;105445;1257;82427;-58
2023/09/16 01:05:38;;;;;;;5.00;2.40;;;;;;;10.18;86.83;101106.83;105455;1254;73540;-58
2023/09/16 01:08:09;;;;;;;4.00;2.30;;;;;;;10.16;86.84;101106.34;105400;1254;69314;-58
2023/09/16 01:10:40;;;;;;;;;;;;;;;10.15;87.03;101105.52;105518;1254;69007;-59
2023/09/16 01:13:08;;;;;;;5.30;2.70;;;;;;;10.14;86.97;101105.55;105383;1255;73906;-58
2023/09/16 01:15:54;;;;;;;4.00;2.20;;;;;;;10.10;86.90;101103.02;105506;1257;83104;-58
2023/09/16 01:18:32;;;;;;;3.70;2.20;;;;;;;10.06;87.00;101102.93;105461;1255;72602;-58
2023/09/16 01:21:04;;;;;;;3.70;2.20;;;;;;;10.03;87.02;101099.33;105524;1257;69317;-58
2023/09/16 01:23:33;;;;;;;3.40;2.20;;;;;;;10.00;87.12;101098.69;105470;1257;69218;-58
2023/09/16 01:26:03;;;;;;;4.90;2.60;;;;;;;9.97;87.03;101095.97;105505;1253;72761;-58
2023/09/16 01:28:32;;;;;;;4.40;2.60;;;;;;;9.94;86.79;101092.39;105376;1260;82481;-58
2023/09/16 01:31:00;;;;;;;4.90;2.30;;;;;;;9.92;87.07;101092.44;105514;1254;73816;-58
2023/09/16 01:33:54;;;;;;;3.30;2.00;;;;;;;9.90;87.08;101093.17;105427;1253;69401;-58
2023/09/16 01:36:25;;;;;;;3.40;2.40;;;;;;;9.86;87.10;101088.20;105419;1256;69223;-58
2023/09/16 01:38:56;;;;;;;5.00;2.40;;;;;;;9.85;87.24;101084.55;105458;1257;73501;-58
2023/09/16 01:41:25;;;;;;;4.20;2.40;;;;;;;9.82;87.21;101082.34;105481;1254;83788;-58
2023/09/16 01:43:53;;;;;;;3.80;2.30;;;;;;;9.80;87.20;101086.23;105501;1253;73631;-58
2023/09/16 01:46:22;;;;;;;4.30;2.60;;;;;;;9.78;87.27;101083.66;105264;1254;70699;-58
2023/09/16 01:48:50;;;;;;;3.90;2.30;;;;;;;9.78;87.37;101081.23;105409;1257;69652;-58
2023/09/16 01:51:19;;;;;;;4.20;2.20;;;;;;;9.75;87.30;101086.00;105485;1257;74917;-58
2023/09/16 01:53:48;;;;;;;4.70;2.40;;;;;;;9.73;87.51;101087.27;105572;1253;83616;-58
2023/09/16 01:56:16;;;;;;;4.80;2.20;;;;;;;9.72;87.55;101087.83;105403;1257;73654;-58
2023/09/16 01:58:44;;;;;;;3.10;2.20;;;;;;;9.69;87.47;101088.92;105304;1257;69246;-58
2023/09/16 02:01:14;;;;;;;4.20;2.50;;;;;;;9.66;87.57;101084.81;105278;1259;69204;-58
2023/09/16 02:03:43;;;;;;;4.80;2.40;;;;;;;9.65;87.68;101085.02;105445;1257;74830;-58
2023/09/16 02:06:13;;;;;;;5.10;2.50;;;;;;;9.63;87.71;101088.54;105467;1254;82434;-58
2023/09/16 02:08:41;;;;;;;4.60;2.20;;;;;;;9.62;87.68;101085.27;105465;1256;71938;-58
2023/09/16 02:11:09;;;;;;;3.50;2.60;;;;;;;9.60;87.93;101083.90;105428;1257;69268;-58
2023/09/16 02:13:38;;;;;;;4.50;2.50;;;;;;;9.60;88.01;101083.03;105501;1254;69278;-58
2023/09/16 02:16:06;;;;;;;4.30;2.30;;;;;;;9.60;88.11;101076.58;105519;1254;74897;-58
2023/09/16 02:18:35;;;;;;;4.10;2.40;;;;;;;9.59;88.02;101078.34;105439;1254;83736;-58
2023/09/16 02:21:04;;;;;;;4.90;2.50;;;;;;;9.57;88.04;101076.64;105431;1257;73590;-58
2023/09/16 02:23:32;;;;;;;3.80;2.40;;;;;;;9.56;88.08;101076.48;105501;1253;69164;-58
2023/09/16 02:26:01;;;;;;;6.70;2.80;;;;;;;9.55;88.13;101075.10;105349;1258;69208;-58
2023/09/16 02:28:30;;;;;;;4.90;2.40;;;;;;;9.54;88.31;101079.14;105536;1256;74796;-58
2023/09/16 02:30:58;;;;;;;5.90;2.30;;;;;;;9.54;88.39;101075.32;105448;1253;83721;-58
2023/09/16 02:33:26;;;;;;;5.20;2.60;;;;;;;9.54;88.53;101071.65;105447;1253;73864;-58
2023/09/16 02:35:54;;;;;;;4.40;3.00;;;;;;;9.51;88.44;101067.36;105438;1254;69189;-58
2023/09/16 02:38:23;;;;;;;4.50;2.50;;;;;;;9.50;88.43;101060.57;105416;1253;69276;-58
2023/09/16 02:40:51;;;;;;;3.90;2.50;;;;;;;9.50;88.77;101058.83;105318;1254;74724;-58
2023/09/16 02:43:19;;;;;;;5.10;3.00;;;;;;;9.50;88.56;101057.09;105474;1257;82997;-58
2023/09/16 02:45:48;;;;;;;4.20;2.50;;;;;;;9.48;88.71;101061.66;105439;1257;72714;-58
2023/09/16 02:48:18;;;;;;;4.30;2.40;;;;;;;9.46;88.66;101060.85;105507;1257;69806;-58
2023/09/16 02:50:47;;;;;;;4.70;2.60;;;;;;;9.44;88.66;101062.27;105495;1257;69100;-58
2023/09/16 02:53:17;;;;;;;5.70;3.00;;;;;;;9.43;88.53;101065.95;105490;1254;73814;-58
2023/09/16 02:55:45;;;;;;;4.20;2.60;;;;;;;9.40;88.59;101064.09;105425;1253;84812;-58
2023/09/16 02:58:15;;;;;;;6.20;2.70;;;;;;;9.38;88.68;101068.16;105438;1257;72720;-58
2023/09/16 03:00:46;;;;;;;5.40;2.90;;;;;;;9.37;88.75;101069.56;105446;1253;69242;-58
2023/09/16 03:03:15;;;;;;;7.90;2.80;;;;;;;9.37;89.01;101067.48;105440;1254;70654;-58
2023/09/16 03:05:47;;;;;;;4.40;3.10;;;;;;;9.40;89.12;101064.98;105394;1257;74847;-58
2023/09/16 03:08:16;;;;;;;4.40;2.50;;;;;;;9.39;89.10;101059.41;105474;1253;83479;-58
2023/09/16 03:10:46;;;;;;;7.90;2.90;;;;;;;9.38;88.99;101056.29;105508;1253;72581;-58
2023/09/16 03:13:15;;;;;;;4.20;2.40;;;;;;;9.36;88.86;101051.28;105487;1254;69176;-58
2023/09/16 03:15:46;;;;;;;5.30;3.00;;;;;;;9.33;89.00;101054.15;105344;1259;69158;-58
2023/09/16 03:18:15;;;;;;;4.50;2.80;;;;;;;9.32;89.27;101051.89;105347;1253;74961;-58
2023/09/16 03:20:43;;;;;;;4.10;2.60;;;;;;;9.33;89.11;101049.95;105446;1257;83515;-58
2023/09/16 03:23:12;;;;;;;5.00;3.00;;;;;;;9.32;89.33;101048.75;105435;1257;73968;-58
2023/09/16 03:25:41;;;;;;;5.80;2.90;;;;;;;9.30;89.29;101040.40;105473;1253;69194;-58
2023/09/16 03:28:09;;;;;;;3.80;2.90;;;;;;;9.30;89.28;101037.45;105449;1259;69190;-58
2023/09/16 03:30:38;;;;;;;4.00;2.60;;;;;;;9.29;89.25;101032.95;105484;1255;73268;-58
2023/09/16 03:33:08;;;;;;;6.50;3.00;;;;;;;9.27;89.34;101031.59;105480;1254;83036;-58
2023/09/16 03:35:38;;;;;;;;;;;;;;;9.24;89.21;101031.48;105453;1253;73865;-58
2023/09/16 03:38:07;;;;;;;4.70;2.90;;;;;;;9.23;89.63;101029.41;105467;1259;69158;-58
2023/09/16 03:40:35;;;;;;;6.20;3.40;;;;;;;9.23;89.69;101029.05;105472;1255;69180;-58
2023/09/16 03:43:04;;;;;;;5.60;3.10;;;;;;;9.24;89.67;101026.60;105457;1256;74357;-58
2023/09/16 03:45:33;;;;;;;9.20;3.60;;;;;;;9.24;89.63;101027.14;105330;1253;83346;-59
2023/09/16 03:48:02;;;;;;;7.50;3.40;;;;;;;9.22;89.61;101027.34;105425;1257;73352;-58
2023/09/16 03:50:33;;;;;;;5.60;3.20;;;;;;;9.21;89.80;101026.14;105481;1253;69295;-58
2023/09/16 03:53:02;;;;;;;6.30;3.10;;;;;;;9.24;90.17;101023.63;105500;1257;69157;-58
2023/09/16 03:55:39;;;;;;;6.40;3.50;;;;;;;9.25;89.93;101017.34;105350;1254;74824;-58
2023/09/16 03:58:07;;;;;;;6.60;3.40;;;;;;;9.25;90.16;101011.23;105454;1253;82316;-58
2023/09/16 04:00:36;;;;;;;6.10;3.10;;;;;;;9.25;90.03;101014.89;105333;1256;72570;-59
2023/09/16 04:03:04;;;;;;;6.30;3.60;;;;;;;9.25;90.14;101013.50;105487;1257;69192;-58
2023/09/16 04:05:33;;;;;;;7.60;4.20;;;;;;;9.28;90.35;101011.16;105378;1253;69585;-59
2023/09/16 04:08:01;;;;;;;6.10;3.50;;;;;;;9.27;90.06;101014.33;105385;1258;74827;-59
2023/09/16 04:10:29;;;;;;;6.00;3.40;;;;;;;9.22;89.94;101018.27;105496;1257;83454;-60
2023/09/16 04:12:58;;;;;;;6.00;3.80;;;;;;;9.21;89.93;101021.80;105338;1258;73396;-59
2023/09/16 04:15:26;;;;;;;5.60;3.60;;;;;;;9.19;90.03;101020.59;105364;1256;69129;-59
2023/09/16 04:17:54;;;;;;;7.20;3.50;;;;;;;9.19;90.25;101019.56;105407;1254;69128;-59
2023/09/16 04:20:24;;;;;;;6.40;3.30;;;;;;;9.20;90.24;101018.50;105385;1258;73940;-59
2023/09/16 04:22:52;;;;;;;6.40;3.60;;;;;;;9.18;89.95;101020.64;105370;1258;83343;-59
2023/09/16 04:25:22;;;;;;;6.50;3.60;;;;;;;9.20;90.55;101022.86;105310;1254;73695;-59
2023/09/16 04:27:51;;;;;;;5.80;3.60;;;;;;;9.26;90.92;101023.08;105365;1253;69126;-59
2023/09/16 04:30:19;;;;;;;6.10;3.60;;;;;;;9.30;91.10;101025.06;105483;1254;69059;-59
2023/09/16 04:32:48;;;;;;;4.70;3.30;;;;;;;9.30;90.68;101021.73;105374;1258;73607;-59
2023/09/16 04:35:16;;;;;;;6.20;3.20;;;;;;;9.30;90.83;101022.11;105344;1258;83716;-59
2023/09/16 04:37:46;;;;;;;5.60;3.50;;;;;;;9.32;90.72;101023.29;105457;1254;72489;-59
2023/09/16 04:40:14;;;;;;;6.70;3.10;;;;;;;9.32;90.93;101026.58;105311;1258;69406;-59
2023/09/16 04:42:42;;;;;;;6.10;3.70;;;;;;;9.34;90.93;101024.97;105355;1253;69120;-59
2023/09/16 04:45:14;;;;;;;;;;;;;;;9.37;91.13;101021.41;105449;1253;74650;-59
2023/09/16 04:47:43;;;;;;;7.60;4.00;;;;;;;9.43;91.79;101015.90;105441;1257;82473;-60
2023/09/16 04:50:12;;;;;;;7.20;4.00;;;;;;;9.48;91.80;101018.21;105343;1258;73868;-59
2023/09/16 04:52:40;;;;;;;9.40;4.40;;;;;;;9.53;92.09;101020.73;105371;1258;69181;-59
2023/09/16 04:55:09;;;;;;;6.20;3.60;;;;;;;9.63;92.63;101018.92;105423;1253;70878;-59
2023/09/16 04:57:38;;;;;;;6.90;4.00;;;;;;;9.70;92.68;101017.20;105449;1257;75006;-59
2023/09/16 05:00:08;;;;;;;6.60;3.80;;;;;;;9.77;92.90;101015.64;105464;1257;83621;-59
2023/09/16 05:02:36;;;;;;;7.20;3.90;;;;;;;9.83;93.03;101016.01;105393;1256;72592;-59
2023/09/16 05:05:06;;;;;;;7.40;4.10;;;;;;;9.95;93.54;101015.89;105381;1257;69244;-59
2023/09/16 05:07:34;;;;;;;9.30;3.90;;;;;;;10.06;93.60;101011.95;105460;1253;69082;-59
2023/09/16 05:10:02;;;;;;;7.80;3.80;;;;;;;10.17;93.72;101014.64;105467;1257;74939;-59
2023/09/16 05:12:31;;;;;;;6.20;3.50;;;;;;;10.29;93.97;101016.64;105383;1258;83763;-60
2023/09/16 05:14:59;;;;;;;6.80;4.30;;;;;;;10.41;93.90;101018.25;105431;1256;72992;-59
2023/09/16 05:17:28;;;;;;;6.60;3.90;;;;;;;10.52;93.78;101017.09;105502;1257;69125;-59
2023/09/16 05:19:56;;;;;;;4.80;3.60;;;;;;;10.57;93.44;101022.55;105438;1253;69002;-59
2023/09/16 05:22:25;;;;;;;6.50;4.10;;;;;;;10.62;93.37;101024.48;105459;1253;73614;-58
2023/09/16 05:24:54;;;;;;;5.10;3.50;;;;;;;10.69;93.17;101022.39;105452;1257;83341;-60
2023/09/16 05:27:23;;;;;;;7.40;3.80;;;;;;;10.71;92.84;101026.02;105462;1256;73800;-60
2023/09/16 05:29:52;;;;;;;7.30;3.80;;;;;;;10.75;92.96;101021.01;105484;1254;69271;-59
2023/09/16 05:32:20;;;;;;;8.90;3.70;;;;;;;10.83;93.32;101023.75;105488;1254;69123;-59
2023/09/16 05:34:49;;;;;;;7.50;4.30;;;;;;;10.93;93.59;101027.29;105512;1256;73012;-57
2023/09/16 05:37:18;;;;;;;7.80;4.20;;;;;;;11.05;93.58;101028.36;105421;1257;83097;-58
2023/09/16 05:39:46;;;;;;;6.10;3.60;;;;;;;11.14;93.55;101028.63;105438;1253;73574;-59
2023/09/16 05:42:15;;;;;;;8.00;4.20;;;;;;;11.22;93.37;101028.21;105428;1253;69450;-59
2023/09/16 05:44:44;;;;;;;7.00;3.80;;;;;;;11.31;93.43;101027.95;105513;1256;69191;-56
2023/09/16 05:47:14;;;;;;;5.60;3.60;;;;;;;11.39;93.41;101032.25;105515;1256;74792;-57
2023/09/16 05:49:43;;;;;;;8.50;4.00;;;;;;;11.50;93.36;101030.20;105489;1253;83412;-60
2023/09/16 05:52:14;;;;;;;6.40;3.70;;;;;;;11.58;93.33;101031.51;105491;1256;72794;-59
2023/09/16 05:54:43;;;;;;;6.50;4.20;;;;;;;11.67;93.45;101030.70;105365;1258;69258;-58
2023/09/16 05:57:12;;;;;;;6.50;3.80;;;;;;;11.74;93.13;101025.91;105415;1253;69178;-57
2023/09/16 05:59:41;;;;;;;6.80;3.90;;;;;;;11.84;93.16;101022.28;105491;1257;74144;-50
2023/09/16 06:02:09;;;;;;;7.20;3.50;;;;;;;11.93;93.19;101018.52;105428;1257;82336;-52
2023/09/16 06:04:37;;;;;;;6.90;4.00;;;;;;;12.00;93.07;101011.10;105339;1257;72668;-51
2023/09/16 06:07:06;;;;;;;5.70;3.80;;;;;;;12.09;92.84;101010.11;105632;1255;69351;-51
2023/09/16 06:09:34;;;;;;;6.60;3.40;;;;;;;12.16;92.69;101016.54;105502;1253;69873;-51
2023/09/16 06:12:03;;;;;;;7.80;3.60;;;;;;;12.24;92.80;101018.69;105481;1257;74846;-49
2023/09/16 06:14:31;;;;;;;6.50;3.50;;;;;;;12.33;92.73;101018.39;105683;1253;83449;-48
2023/09/16 06:16:59;;;;;;;7.20;3.80;;;;;;;12.42;92.41;101020.71;105665;1252;72501;-49
2023/09/16 06:19:28;;;;;;;6.10;3.50;;;;;;;12.50;92.38;101017.09;105712;1252;69990;-50
2023/09/16 06:21:58;;;;;;;8.40;4.20;;;;;;;12.61;92.27;101014.78;105731;1253;69913;-49
2023/09/16 06:24:26;;;;;;;7.10;3.70;;;;;;;12.71;92.37;101010.92;105699;1255;74882;-51
2023/09/16 06:26:55;;;;;;;7.80;4.00;;;;;;;12.80;92.05;101011.98;105433;1254;82441;-49
2023/09/16 06:29:23;;;;;;;5.90;3.90;;;;;;;12.89;91.89;101010.96;105687;1257;72744;-49
2023/09/16 06:31:52;;;;;;;7.20;4.00;;;;;;;12.98;91.78;101016.78;105418;1257;70048;-49
2023/09/16 06:34:20;;;;;;;6.40;3.60;;;;;;;13.07;91.61;101015.05;105405;1257;69871;-50
2023/09/16 06:36:52;;;;;;;5.40;3.30;;;;;;;13.17;91.57;101009.73;105518;1253;74860;-52
2023/09/16 06:39:21;;;;;;;6.20;3.50;;;;;;;13.26;91.41;101010.13;105366;1257;83326;-53
2023/09/16 06:41:50;;;;;;;8.60;4.20;;;;;;;13.35;91.25;101010.13;105532;1257;73514;-50
2023/09/16 06:44:19;;;;;;;6.80;4.00;;;;;;;13.46;91.00;101013.42;105492;1257;69204;-53
2023/09/16 06:46:48;;;;;;;8.50;3.60;;;;;;;13.54;90.89;101012.20;105322;1256;69965;-51
2023/09/16 06:49:19;;;;;;;6.80;3.80;;;;;;;13.63;90.83;101015.35;105608;1257;73952;-53
2023/09/16 06:51:48;;;;;;;6.00;3.60;;;;;;;13.71;90.25;101014.33;105529;1257;83460;-50
2023/09/16 06:54:16;;;;;;;9.70;3.70;;;;;;;13.79;90.27;101010.14;105447;1253;72748;-50
2023/09/16 06:56:44;;;;;;;10.30;4.30;;;;;;;13.89;90.30;101009.55;105405;1257;69984;-50
2023/09/16 06:59:13;;;;;;;7.70;4.30;;;;;;;13.99;90.26;101015.83;105451;1253;70375;-51
2023/09/16 07:01:41;;;;;;;7.10;3.70;;;;;;;14.08;90.03;101014.05;105607;1256;74892;-51
2023/09/16 07:04:10;;;;;;;5.60;3.90;;;;;;;14.17;90.00;101016.83;105649;1257;82184;-49
2023/09/16 07:06:38;;;;;;;7.80;3.80;;;;;;;14.26;89.84;101012.59;105426;1253;72783;-55
2023/09/16 07:09:06;;;;;;;6.50;3.60;;;;;;;14.33;89.39;101011.42;105333;1253;69196;-58
2023/09/16 07:11:35;;;;;;;7.20;4.40;;;;;;;14.41;89.32;101012.27;107629;1255;69219;-52
2023/09/16 07:14:03;;;;;;;8.10;4.30;;;;;;;14.51;89.40;101006.77;105495;1253;73915;-54
2023/09/16 07:16:40;;;;;;;4.90;3.60;;;;;;;14.62;89.37;101004.23;105495;1256;82735;-51
2023/09/16 07:19:09;;;;;;;6.60;4.20;;;;;;;14.74;89.30;101001.92;105513;1257;73687;-52
2023/09/16 07:21:37;;;;;;;9.10;4.10;;;;;;;14.85;89.07;101000.52;105648;1257;69189;-51
2023/09/16 07:24:06;;;;;;;10.20;4.20;;;;;;;14.98;88.84;101004.88;105616;1256;69208;-57
2023/09/16 07:26:34;;;;;;;9.50;3.90;;;;;;;15.09;88.56;101003.67;105661;1253;74815;-55
2023/09/16 07:29:02;;;;;;;7.00;4.30;;;;;;;15.18;88.34;100998.33;105773;1256;83367;-56
2023/09/16 07:31:30;;;;;;;8.30;4.50;;;;;;;15.31;88.33;101001.05;105508;1256;73859;-57
2023/09/16 07:33:59;;;;;;;7.80;4.30;;;;;;;15.45;87.96;100995.83;105514;1253;69599;-56
2023/09/16 07:36:27;;;;;;;7.00;4.40;;;;;;;15.57;87.63;100992.96;105667;1256;69104;-54
2023/09/16 07:38:57;;;;;;;5.20;3.70;;;;;;;15.68;87.40;100992.63;105651;1257;74937;-50
2023/09/16 07:41:25;;;;;;;9.20;4.80;;;;;;;15.77;87.00;100985.29;105611;1253;82368;-52
2023/09/16 07:43:53;;;;;;;6.30;4.00;;;;;;;15.88;86.78;100985.85;105431;1257;72824;-51
2023/09/16 07:46:22;;;;;;;9.90;5.50;;;;;;;16.00;86.58;100985.05;105600;1255;70018;-50
2023/09/16 07:48:50;;;;;;;8.90;5.60;;;;;;;16.13;86.48;100978.94;105604;1252;70415;-53
2023/09/16 07:51:19;;;;;;;7.60;4.50;;;;;;;16.26;86.36;100978.11;105710;1254;73000;-50
2023/09/16 07:53:47;;;;;;;10.30;5.10;;;;;;;16.38;86.02;100975.88;105492;1253;83382;-51
2023/09/16 07:56:18;;;;;;;7.50;4.00;;;;;;;16.51;85.77;100977.29;105608;1255;73665;-50
2023/09/16 07:58:46;;;;;;;7.50;4.30;;;;;;;16.65;85.48;100978.66;105513;1254;219415;-52
2023/09/16 08:01:15;;;;;;;9.70;4.60;;;;;;;16.79;84.91;100982.05;105645;1253;69971;-51
2023/09/16 08:03:44;;;;;;;8.50;4.20;;;;;;;16.88;84.49;100978.70;105677;1253;74730;-50
2023/09/16 08:06:13;;;;;;;8.10;4.20;;;;;;;16.94;83.97;100973.63;105708;1253;83565;-51
2023/09/16 08:08:41;;;;;;;6.60;3.90;;;;;;;17.03;84.05;100973.65;105787;1252;71701;-53
2023/09/16 08:11:10;;;;;;;8.50;4.60;;;;;;;17.17;84.04;100971.69;105588;1253;69874;-54
2023/09/16 08:13:38;;;;;;;7.90;4.40;;;;;;;17.32;83.76;100976.49;105563;1255;69958;-50
2023/09/16 08:16:06;;;;;;;7.70;4.10;;;;;;;17.45;83.57;100980.32;105641;1255;73351;-50
2023/09/16 08:18:35;;;;;;;6.30;4.00;;;;;;;17.55;82.80;100975.86;105611;1257;83107;-50
2023/09/16 08:21:03;;;;;;;6.80;4.20;;;;;;;17.65;82.79;100974.98;105487;1253;72653;-51
2023/09/16 08:23:32;;;;;;;5.70;3.90;;;;;;;17.80;82.91;100976.95;105618;1256;69827;-49
2023/09/16 08:26:00;;;;;;;7.20;3.80;;;;;;;17.96;82.64;100978.70;105514;1253;69911;-53
2023/09/16 08:28:30;;;;;;;5.90;3.80;;;;;;;18.05;82.01;100977.80;105607;1253;74730;-50
2023/09/16 08:30:59;;;;;;;6.10;4.30;;;;;;;18.16;82.20;100981.92;105729;1253;83097;-51
2023/09/16 08:33:27;;;;;;;9.00;4.30;;;;;;;18.31;82.09;100983.31;105711;1253;73339;-53
2023/09/16 08:35:56;;;;;;;8.10;4.10;;;;;;;18.49;81.86;100981.72;105564;1255;69860;-54
2023/09/16 08:38:24;;;;;;;5.70;4.10;;;;;;;18.65;81.71;100980.91;105592;1253;69250;-53
2023/09/16 08:41:14;;;;;;;7.40;4.00;;;;;;;18.77;81.07;100979.66;105617;1256;74810;-51
2023/09/16 08:43:43;;;;;;;7.40;4.00;;;;;;;18.95;80.94;100982.29;105691;1253;84012;-52
2023/09/16 08:46:16;;;;;;;5.70;4.00;;;;;;;19.09;80.50;100977.83;105620;1255;72633;-50
2023/09/16 08:48:46;;;;;;;6.60;4.20;;;;;;;19.21;80.27;100978.48;105591;1256;70009;-51
2023/09/16 08:51:17;;;;;;;7.70;3.90;;;;;;;19.37;79.79;100977.83;105446;1252;69892;-50
2023/09/16 08:53:47;;;;;;;5.80;3.60;;;;;;;19.49;79.35;100978.27;105657;1253;73880;-48
2023/09/16 08:56:15;;;;;;;9.90;4.00;;;;;;;19.62;79.04;100972.32;105431;1254;84153;-49
2023/09/16 08:58:44;;;;;;;7.70;4.30;;;;;;;19.78;78.81;100975.65;105494;1254;73643;-50
2023/09/16 09:01:16;;;;;;;7.70;4.30;;;;;;;19.93;77.91;100966.92;105576;1255;69916;-49
2023/09/16 09:03:45;;;;;;;6.80;4.40;;;;;;;20.03;77.75;100964.31;105629;1255;69958;-48
2023/09/16 09:06:14;;;;;;;9.50;4.30;;;;;;;20.15;77.32;100962.56;105678;1253;73851;-51
2023/09/16 09:08:57;;;;;;;5.20;3.80;;;;;;;20.34;77.20;100959.48;105406;1253;83242;-49
2023/09/16 09:11:26;;;;;;;17.40;7.90;;;;;;;20.49;76.63;100954.52;105694;1255;73575;-48
2023/09/16 09:13:56;;;;;;;10.00;4.30;;;;;;;20.61;76.23;100948.58;105769;1254;69955;-54
2023/09/16 09:16:25;;;;;;;43.60;18.30;;;;;;;20.76;75.93;100942.94;105471;1257;70016;-50
2023/09/16 09:18:56;;;;;;;;;;;;;;;20.92;75.49;100938.77;105660;1256;73951;-52
2023/09/16 09:21:25;;;;;;;6.90;3.80;;;;;;;21.06;74.95;100936.52;105610;1253;82012;-49
2023/09/16 09:23:53;;;;;;;7.70;4.60;;;;;;;21.20;74.68;100939.00;105521;1252;72573;-49
2023/09/16 09:26:21;;;;;;;6.80;3.40;;;;;;;21.38;74.21;100933.50;105498;1253;69865;-49
2023/09/16 09:28:50;;;;;;;8.60;3.70;;;;;;;21.55;73.82;100935.38;105519;1257;69801;-51
2023/09/16 09:31:19;;;;;;;6.00;3.80;;;;;;;21.68;72.81;100935.52;105734;1253;74912;-57
2023/09/16 09:33:48;;;;;;;5.60;3.40;;;;;;;21.74;72.46;100934.17;105629;1255;82154;-56
2023/09/16 09:36:17;;;;;;;6.20;3.80;;;;;;;21.90;72.09;100938.59;105696;1256;72661;-57
2023/09/16 09:38:46;;;;;;;5.60;3.30;;;;;;;22.07;71.72;100939.78;105657;1253;70594;-57
2023/09/16 09:41:15;;;;;;;6.20;3.70;;;;;;;22.23;71.02;100936.27;105571;1253;69838;-57
2023/09/16 09:43:44;;;;;;;6.50;3.50;;;;;;;22.39;70.49;100938.61;105570;1257;75054;-56
2023/09/16 09:46:12;;;;;;;6.30;3.30;;;;;;;22.59;70.31;100941.53;105742;1252;83174;-57
2023/09/16 09:48:41;;;;;;;9.10;4.20;;;;;;;22.87;70.08;100939.52;105595;1253;73640;-57
2023/09/16 09:51:09;;;;;;;5.60;3.40;;;;;;;23.06;69.50;100936.02;105619;1254;69113;-57
2023/09/16 09:53:37;;;;;;;6.40;3.60;;;;;;;23.22;68.76;100934.70;105473;1253;69071;-57
2023/09/16 09:56:06;;;;;;;5.10;3.90;;;;;;;23.40;68.58;100929.30;105363;1258;74760;-58
2023/09/16 09:58:34;;;;;;;4.90;3.10;;;;;;;23.63;67.85;100922.60;105635;1256;83307;-56
2023/09/16 10:01:02;;;;;;;6.20;3.40;;;;;;;23.80;67.39;100920.27;105458;1253;73475;-56
2023/09/16 10:03:31;;;;;;;6.60;3.60;;;;;;;23.99;66.38;100923.16;105367;1253;69122;-57
2023/09/16 10:06:12;;;;;;;5.40;3.90;;;;;;;24.14;65.77;100921.14;105543;1256;69066;-57
2023/09/16 10:08:42;;;;;;;8.80;3.80;;;;;;;24.30;65.27;100920.83;105638;1257;75014;-57
2023/09/16 10:11:10;;;;;;;4.60;3.40;;;;;;;24.48;64.74;100919.27;105618;1253;82898;-57
2023/09/16 10:13:39;;;;;;;4.20;3.10;;;;;;;24.68;64.27;100917.02;105766;1253;73885;-57
2023/09/16 10:16:08;;;;;;;5.30;3.20;;;;;;;24.94;64.05;100910.76;105755;1255;69963;-57
2023/09/16 10:18:37;;;;;;;6.10;3.60;;;;;;;25.21;63.29;100910.02;105655;1253;69062;-57
2023/09/16 10:21:07;;;;;;;5.60;3.90;;;;;;;25.38;62.35;100901.40;105467;1257;74600;-57
2023/09/16 10:23:35;;;;;;;4.50;3.10;;;;;;;25.48;61.45;100902.45;105649;1253;82915;-57
2023/09/16 10:26:04;;;;;;;5.00;3.40;;;;;;;25.63;61.11;100898.96;105566;1256;73149;-57
2023/09/16 10:28:36;;;;;;;5.50;3.80;;;;;;;25.86;61.18;100897.37;105744;1255;69062;-56
2023/09/16 10:31:04;;;;;;;4.10;3.20;;;;;;;26.23;60.82;100896.39;105578;1255;69192;-57
2023/09/16 10:33:33;;;;;;;5.60;3.20;;;;;;;26.43;59.74;100894.27;105657;1255;74869;-57
2023/09/16 10:36:03;;;;;;;4.40;3.30;;;;;;;26.55;58.99;100897.80;105606;1253;83570;-57
2023/09/16 10:38:34;;;;;;;4.70;3.50;;;;;;;26.69;58.47;100890.92;105574;1258;72649;-57
2023/09/16 10:41:05;;;;;;;4.30;3.20;;;;;;;26.76;57.58;100892.17;105628;1258;69200;-57
2023/09/16 10:43:33;;;;;;;5.40;3.50;;;;;;;26.83;57.06;100886.70;105588;1255;69266;-57
2023/09/16 10:46:01;;;;;;;6.70;3.40;;;;;;;26.90;56.58;100882.38;105694;1258;73800;-57
2023/09/16 10:48:30;;;;;;;4.10;3.00;;;;;;;27.10;56.91;100882.02;105599;1253;83024;-58
2023/09/16 10:51:01;;;;;;;4.90;3.20;;;;;;;27.31;56.52;100875.35;105548;1253;73708;-59
2023/09/16 10:53:36;;;;;;;5.50;3.40;;;;;;;27.54;55.63;100875.81;105681;1253;69168;-57
2023/09/16 10:56:15;;;;;;;3.50;3.00;;;;;;;27.56;54.51;100872.80;105597;1256;69116;-54
2023/09/16 10:59:10;;;;;;;6.20;3.10;;;;;;;27.59;54.80;100869.23;105506;1253;75054;-53
2023/09/16 11:01:51;;;;;;;7.00;2.80;;;;;;;27.83;54.61;100863.98;105713;1253;82386;-53
2023/09/16 11:04:20;;;;;;;3.40;2.90;;;;;;;27.99;53.48;100863.33;105684;1255;72566;-54
2023/09/16 11:06:50;;;;;;;4.50;2.90;;;;;;;27.98;53.15;100866.55;105649;1253;69408;-53
2023/09/16 11:09:21;;;;;;;5.60;3.20;;;;;;;28.02;52.82;100869.16;105499;1253;69565;-57
2023/09/16 11:11:50;;;;;;;3.40;2.90;;;;;;;28.21;53.09;100870.23;105692;1255;74831;-57
2023/09/16 11:14:22;;;;;;;4.10;2.90;;;;;;;28.44;52.35;100871.81;105495;1257;83368;-57
2023/09/16 11:16:56;;;;;;;4.10;3.00;;;;;;;28.47;51.96;100871.01;105331;1258;73659;-57
2023/09/16 11:19:25;;;;;;;4.20;3.00;;;;;;;28.54;51.61;100865.60;105623;1253;69168;-57
2023/09/16 11:21:54;;;;;;;3.80;2.90;;;;;;;28.62;51.08;100859.36;105643;1253;69044;-57
2023/09/16 11:24:23;;;;;;;4.70;3.30;;;;;;;28.67;50.82;100852.80;105692;1255;74927;-57
2023/09/16 11:26:51;;;;;;;5.90;2.80;;;;;;;28.65;49.94;100850.04;105604;1253;83291;-57
2023/09/16 11:29:25;;;;;;;3.80;2.90;;;;;;;28.65;50.24;100846.56;105736;1253;72650;-57
2023/09/16 11:31:54;;;;;;;4.20;2.70;;;;;;;28.86;50.20;100840.60;105702;1255;69218;-58